sensor_id;sensor_type;location;lat;lon;timestamp;P1;durP1;ratioP1;P2;durP2;ratioP2
40254;SDS011;25973;52.368;4.940;2023-03-17T00:02:22;3.53;;;1.05;;
40254;SDS011;25973;52.368;4.940;2023-03-17T00:04:48;2.38;;;1.05;;
40254;SDS011;25973;52.368;4.940;2023-03-17T00:07:14;2.33;;;1.23;;
40254;SDS011;25973;52.368;4.940;2023-03-17T00:09:41;2.88;;;1.08;;
40254;SDS011;25973;52.368;4.940;2023-03-17T00:12:09;5.28;;;1.10;;
40254;SDS011;25973;52.368;4.940;2023-03-17T00:14:35;2.10;;;1.15;;
40254;SDS011;25973;52.368;4.940;2023-03-17T00:17:02;5.15;;;1.08;;
40254;SDS011;25973;52.368;4.940;2023-03-17T00:19:31;3.55;;;1.15;;
40254;SDS011;25973;52.368;4.940;2023-03-17T00:21:59;4.30;;;1.20;;
40254;SDS011;25973;52.368;4.940;2023-03-17T00:24:26;3.50;;;1.55;;
40254;SDS011;25973;52.368;4.940;2023-03-17T00:26:52;2.15;;;0.98;;
40254;SDS011;25973;52.368;4.940;2023-03-17T00:29:18;5.03;;;1.45;;
40254;SDS011;25973;52.368;4.940;2023-03-17T00:31:44;3.85;;;1.58;;
40254;SDS011;25973;52.368;4.940;2023-03-17T00:34:10;4.10;;;1.15;;
40254;SDS011;25973;52.368;4.940;2023-03-17T00:36:40;2.97;;;1.33;;
40254;SDS011;25973;52.368;4.940;2023-03-17T00:39:10;4.88;;;1.40;;
40254;SDS011;25973;52.368;4.940;2023-03-17T00:41:38;3.35;;;1.15;;
40254;SDS011;25973;52.368;4.940;2023-03-17T00:44:04;9.77;;;3.55;;
40254;SDS011;25973;52.368;4.940;2023-03-17T00:46:29;8.95;;;3.50;;
40254;SDS011;25973;52.368;4.940;2023-03-17T00:49:03;23.10;;;9.25;;
40254;SDS011;25973;52.368;4.940;2023-03-17T00:51:39;4.20;;;1.80;;
40254;SDS011;25973;52.368;4.940;2023-03-17T00:54:05;3.00;;;1.52;;
40254;SDS011;25973;52.368;4.940;2023-03-17T00:56:31;3.15;;;1.50;;
40254;SDS011;25973;52.368;4.940;2023-03-17T00:58:57;6.55;;;1.45;;
40254;SDS011;25973;52.368;4.940;2023-03-17T01:01:23;4.65;;;1.90;;
40254;SDS011;25973;52.368;4.940;2023-03-17T01:03:48;4.53;;;2.20;;
40254;SDS011;25973;52.368;4.940;2023-03-17T01:06:14;3.70;;;1.95;;
40254;SDS011;25973;52.368;4.940;2023-03-17T01:08:41;2.83;;;1.25;;
40254;SDS011;25973;52.368;4.940;2023-03-17T01:11:17;5.78;;;1.55;;
40254;SDS011;25973;52.368;4.940;2023-03-17T01:13:44;3.28;;;1.30;;
40254;SDS011;25973;52.368;4.940;2023-03-17T01:16:10;4.82;;;1.50;;
40254;SDS011;25973;52.368;4.940;2023-03-17T01:18:36;5.38;;;1.83;;
40254;SDS011;25973;52.368;4.940;2023-03-17T01:21:02;3.00;;;1.30;;
40254;SDS011;25973;52.368;4.940;2023-03-17T01:23:28;3.95;;;1.65;;
40254;SDS011;25973;52.368;4.940;2023-03-17T01:25:55;3.28;;;1.40;;
40254;SDS011;25973;52.368;4.940;2023-03-17T01:28:21;1.90;;;1.17;;
40254;SDS011;25973;52.368;4.940;2023-03-17T01:30:47;8.93;;;1.80;;
40254;SDS011;25973;52.368;4.940;2023-03-17T01:33:13;3.45;;;1.65;;
40254;SDS011;25973;52.368;4.940;2023-03-17T01:35:39;4.95;;;1.55;;
40254;SDS011;25973;52.368;4.940;2023-03-17T01:38:07;2.88;;;1.38;;
40254;SDS011;25973;52.368;4.940;2023-03-17T01:40:34;3.58;;;1.38;;
40254;SDS011;25973;52.368;4.940;2023-03-17T01:48:48;6.75;;;1.83;;
40254;SDS011;25973;52.368;4.940;2023-03-17T01:51:20;2.78;;;1.52;;
40254;SDS011;25973;52.368;4.940;2023-03-17T01:53:51;3.90;;;1.50;;
40254;SDS011;25973;52.368;4.940;2023-03-17T01:56:18;3.20;;;1.65;;
40254;SDS011;25973;52.368;4.940;2023-03-17T01:58:44;3.53;;;1.40;;
40254;SDS011;25973;52.368;4.940;2023-03-17T02:01:13;3.22;;;1.80;;
40254;SDS011;25973;52.368;4.940;2023-03-17T02:03:39;3.40;;;1.38;;
40254;SDS011;25973;52.368;4.940;2023-03-17T02:06:06;4.45;;;1.83;;
40254;SDS011;25973;52.368;4.940;2023-03-17T02:08:33;6.85;;;1.92;;
40254;SDS011;25973;52.368;4.940;2023-03-17T02:10:58;3.47;;;1.42;;
40254;SDS011;25973;52.368;4.940;2023-03-17T02:13:26;2.83;;;1.23;;
40254;SDS011;25973;52.368;4.940;2023-03-17T02:15:52;2.25;;;1.27;;
40254;SDS011;25973;52.368;4.940;2023-03-17T02:18:19;2.70;;;1.20;;
40254;SDS011;25973;52.368;4.940;2023-03-17T02:23:11;6.15;;;1.70;;
40254;SDS011;25973;52.368;4.940;2023-03-17T02:25:41;2.97;;;1.27;;
40254;SDS011;25973;52.368;4.940;2023-03-17T02:28:11;2.15;;;1.20;;
40254;SDS011;25973;52.368;4.940;2023-03-17T02:30:40;3.58;;;2.42;;
40254;SDS011;25973;52.368;4.940;2023-03-17T02:33:07;3.28;;;1.45;;
40254;SDS011;25973;52.368;4.940;2023-03-17T02:35:33;3.03;;;1.17;;
40254;SDS011;25973;52.368;4.940;2023-03-17T02:37:58;3.83;;;1.20;;
40254;SDS011;25973;52.368;4.940;2023-03-17T02:40:25;2.83;;;1.10;;
40254;SDS011;25973;52.368;4.940;2023-03-17T02:42:51;3.25;;;1.23;;
40254;SDS011;25973;52.368;4.940;2023-03-17T02:45:18;7.80;;;2.15;;
40254;SDS011;25973;52.368;4.940;2023-03-17T02:47:44;4.63;;;1.52;;
40254;SDS011;25973;52.368;4.940;2023-03-17T02:50:16;6.75;;;1.55;;
40254;SDS011;25973;52.368;4.940;2023-03-17T02:52:45;2.47;;;1.48;;
40254;SDS011;25973;52.368;4.940;2023-03-17T02:55:10;3.33;;;1.35;;
40254;SDS011;25973;52.368;4.940;2023-03-17T02:57:36;2.75;;;1.10;;
40254;SDS011;25973;52.368;4.940;2023-03-17T03:00:02;3.80;;;1.45;;
40254;SDS011;25973;52.368;4.940;2023-03-17T03:02:28;3.83;;;1.60;;
40254;SDS011;25973;52.368;4.940;2023-03-17T03:04:54;4.15;;;1.13;;
40254;SDS011;25973;52.368;4.940;2023-03-17T03:07:20;5.75;;;1.40;;
40254;SDS011;25973;52.368;4.940;2023-03-17T03:09:46;2.35;;;1.15;;
40254;SDS011;25973;52.368;4.940;2023-03-17T03:12:12;2.72;;;1.20;;
40254;SDS011;25973;52.368;4.940;2023-03-17T03:14:38;6.65;;;1.30;;
40254;SDS011;25973;52.368;4.940;2023-03-17T03:17:03;3.78;;;1.33;;
40254;SDS011;25973;52.368;4.940;2023-03-17T03:19:29;3.60;;;1.50;;
40254;SDS011;25973;52.368;4.940;2023-03-17T03:21:55;4.13;;;1.48;;
40254;SDS011;25973;52.368;4.940;2023-03-17T03:24:20;5.18;;;1.80;;
40254;SDS011;25973;52.368;4.940;2023-03-17T03:26:46;2.28;;;1.20;;
40254;SDS011;25973;52.368;4.940;2023-03-17T03:29:12;3.90;;;1.30;;
40254;SDS011;25973;52.368;4.940;2023-03-17T03:31:37;3.90;;;1.38;;
40254;SDS011;25973;52.368;4.940;2023-03-17T03:34:03;2.38;;;1.10;;
40254;SDS011;25973;52.368;4.940;2023-03-17T03:36:29;3.60;;;1.67;;
40254;SDS011;25973;52.368;4.940;2023-03-17T03:38:54;3.15;;;1.50;;
40254;SDS011;25973;52.368;4.940;2023-03-17T03:41:20;4.63;;;1.38;;
40254;SDS011;25973;52.368;4.940;2023-03-17T03:43:46;3.85;;;1.30;;
40254;SDS011;25973;52.368;4.940;2023-03-17T03:46:12;3.90;;;1.13;;
40254;SDS011;25973;52.368;4.940;2023-03-17T03:48:37;3.67;;;1.33;;
40254;SDS011;25973;52.368;4.940;2023-03-17T03:51:03;3.92;;;1.20;;
40254;SDS011;25973;52.368;4.940;2023-03-17T03:53:28;2.90;;;1.00;;
40254;SDS011;25973;52.368;4.940;2023-03-17T03:55:54;3.38;;;1.77;;
40254;SDS011;25973;52.368;4.940;2023-03-17T03:58:20;4.55;;;1.65;;
40254;SDS011;25973;52.368;4.940;2023-03-17T04:00:46;2.15;;;1.02;;
40254;SDS011;25973;52.368;4.940;2023-03-17T04:03:12;3.22;;;1.38;;
40254;SDS011;25973;52.368;4.940;2023-03-17T04:05:38;2.22;;;0.95;;
40254;SDS011;25973;52.368;4.940;2023-03-17T04:08:04;3.70;;;1.38;;
40254;SDS011;25973;52.368;4.940;2023-03-17T04:10:30;3.75;;;1.20;;
40254;SDS011;25973;52.368;4.940;2023-03-17T04:12:56;4.03;;;1.45;;
40254;SDS011;25973;52.368;4.940;2023-03-17T04:15:22;2.55;;;1.45;;
40254;SDS011;25973;52.368;4.940;2023-03-17T04:17:48;3.35;;;0.95;;
40254;SDS011;25973;52.368;4.940;2023-03-17T04:20:13;3.67;;;1.25;;
40254;SDS011;25973;52.368;4.940;2023-03-17T04:22:40;4.30;;;1.20;;
40254;SDS011;25973;52.368;4.940;2023-03-17T04:25:06;2.85;;;1.35;;
40254;SDS011;25973;52.368;4.940;2023-03-17T04:27:33;4.90;;;1.00;;
40254;SDS011;25973;52.368;4.940;2023-03-17T04:29:59;1.98;;;1.10;;
40254;SDS011;25973;52.368;4.940;2023-03-17T04:32:25;5.70;;;1.55;;
40254;SDS011;25973;52.368;4.940;2023-03-17T04:34:51;1.48;;;1.00;;
40254;SDS011;25973;52.368;4.940;2023-03-17T04:37:17;3.30;;;1.20;;
40254;SDS011;25973;52.368;4.940;2023-03-17T04:39:42;3.75;;;1.23;;
40254;SDS011;25973;52.368;4.940;2023-03-17T04:42:08;5.35;;;1.30;;
40254;SDS011;25973;52.368;4.940;2023-03-17T04:44:34;5.53;;;1.27;;
40254;SDS011;25973;52.368;4.940;2023-03-17T04:47:00;9.07;;;1.20;;
40254;SDS011;25973;52.368;4.940;2023-03-17T04:49:26;3.75;;;1.50;;
40254;SDS011;25973;52.368;4.940;2023-03-17T04:51:52;1.38;;;0.88;;
40254;SDS011;25973;52.368;4.940;2023-03-17T04:54:17;2.30;;;1.13;;
40254;SDS011;25973;52.368;4.940;2023-03-17T04:56:43;4.07;;;1.58;;
40254;SDS011;25973;52.368;4.940;2023-03-17T04:59:08;2.88;;;1.38;;
40254;SDS011;25973;52.368;4.940;2023-03-17T05:01:35;3.20;;;1.48;;
40254;SDS011;25973;52.368;4.940;2023-03-17T05:04:01;2.00;;;1.20;;
40254;SDS011;25973;52.368;4.940;2023-03-17T05:06:26;2.47;;;1.52;;
40254;SDS011;25973;52.368;4.940;2023-03-17T05:08:52;1.83;;;0.90;;
40254;SDS011;25973;52.368;4.940;2023-03-17T05:11:17;3.75;;;1.48;;
40254;SDS011;25973;52.368;4.940;2023-03-17T05:13:43;3.50;;;1.40;;
40254;SDS011;25973;52.368;4.940;2023-03-17T05:16:09;2.65;;;1.25;;
40254;SDS011;25973;52.368;4.940;2023-03-17T05:18:35;2.03;;;0.88;;
40254;SDS011;25973;52.368;4.940;2023-03-17T05:21:01;4.43;;;1.73;;
40254;SDS011;25973;52.368;4.940;2023-03-17T05:23:27;3.33;;;1.15;;
40254;SDS011;25973;52.368;4.940;2023-03-17T05:25:54;3.70;;;1.15;;
40254;SDS011;25973;52.368;4.940;2023-03-17T05:28:19;2.75;;;1.30;;
40254;SDS011;25973;52.368;4.940;2023-03-17T05:30:46;2.67;;;1.00;;
40254;SDS011;25973;52.368;4.940;2023-03-17T05:33:13;4.18;;;1.42;;
40254;SDS011;25973;52.368;4.940;2023-03-17T05:35:40;4.65;;;1.38;;
40254;SDS011;25973;52.368;4.940;2023-03-17T05:38:06;3.42;;;1.30;;
40254;SDS011;25973;52.368;4.940;2023-03-17T05:40:32;2.58;;;1.35;;
40254;SDS011;25973;52.368;4.940;2023-03-17T05:42:59;3.22;;;1.10;;
40254;SDS011;25973;52.368;4.940;2023-03-17T05:45:25;4.75;;;1.30;;
40254;SDS011;25973;52.368;4.940;2023-03-17T05:47:50;3.88;;;1.70;;
40254;SDS011;25973;52.368;4.940;2023-03-17T05:50:16;3.70;;;1.48;;
40254;SDS011;25973;52.368;4.940;2023-03-17T05:52:42;5.57;;;2.22;;
40254;SDS011;25973;52.368;4.940;2023-03-17T05:55:08;5.00;;;1.30;;
40254;SDS011;25973;52.368;4.940;2023-03-17T05:57:34;2.40;;;1.23;;
40254;SDS011;25973;52.368;4.940;2023-03-17T06:00:00;5.95;;;1.88;;
40254;SDS011;25973;52.368;4.940;2023-03-17T06:02:26;3.85;;;1.30;;
40254;SDS011;25973;52.368;4.940;2023-03-17T06:04:52;2.63;;;1.00;;
40254;SDS011;25973;52.368;4.940;2023-03-17T06:07:17;2.95;;;1.20;;
40254;SDS011;25973;52.368;4.940;2023-03-17T06:09:43;10.05;;;1.70;;
40254;SDS011;25973;52.368;4.940;2023-03-17T06:12:08;2.67;;;1.08;;
40254;SDS011;25973;52.368;4.940;2023-03-17T06:14:34;1.75;;;1.00;;
40254;SDS011;25973;52.368;4.940;2023-03-17T06:17:00;2.38;;;1.13;;
40254;SDS011;25973;52.368;4.940;2023-03-17T06:19:26;5.45;;;1.55;;
40254;SDS011;25973;52.368;4.940;2023-03-17T06:21:52;3.63;;;1.60;;
40254;SDS011;25973;52.368;4.940;2023-03-17T06:24:17;2.50;;;1.35;;
40254;SDS011;25973;52.368;4.940;2023-03-17T06:26:43;2.15;;;1.55;;
40254;SDS011;25973;52.368;4.940;2023-03-17T06:29:09;5.57;;;1.45;;
40254;SDS011;25973;52.368;4.940;2023-03-17T06:31:36;4.70;;;1.40;;
40254;SDS011;25973;52.368;4.940;2023-03-17T06:34:02;4.43;;;1.20;;
40254;SDS011;25973;52.368;4.940;2023-03-17T06:36:28;4.32;;;1.55;;
40254;SDS011;25973;52.368;4.940;2023-03-17T06:38:54;2.83;;;1.10;;
40254;SDS011;25973;52.368;4.940;2023-03-17T06:41:20;3.10;;;0.98;;
40254;SDS011;25973;52.368;4.940;2023-03-17T06:43:46;4.80;;;1.45;;
40254;SDS011;25973;52.368;4.940;2023-03-17T06:46:11;4.63;;;1.45;;
40254;SDS011;25973;52.368;4.940;2023-03-17T06:48:37;3.08;;;1.67;;
40254;SDS011;25973;52.368;4.940;2023-03-17T06:51:03;4.18;;;1.25;;
40254;SDS011;25973;52.368;4.940;2023-03-17T06:53:29;2.85;;;1.25;;
40254;SDS011;25973;52.368;4.940;2023-03-17T06:55:55;7.97;;;1.35;;
40254;SDS011;25973;52.368;4.940;2023-03-17T06:58:20;5.88;;;1.50;;
40254;SDS011;25973;52.368;4.940;2023-03-17T07:00:56;5.28;;;1.73;;
40254;SDS011;25973;52.368;4.940;2023-03-17T07:03:23;5.28;;;1.17;;
40254;SDS011;25973;52.368;4.940;2023-03-17T07:05:49;3.38;;;1.30;;
40254;SDS011;25973;52.368;4.940;2023-03-17T07:08:15;4.55;;;1.30;;
40254;SDS011;25973;52.368;4.940;2023-03-17T07:10:41;4.28;;;1.73;;
40254;SDS011;25973;52.368;4.940;2023-03-17T07:13:08;4.45;;;1.85;;
40254;SDS011;25973;52.368;4.940;2023-03-17T07:15:34;5.85;;;1.63;;
40254;SDS011;25973;52.368;4.940;2023-03-17T07:18:01;3.22;;;1.25;;
40254;SDS011;25973;52.368;4.940;2023-03-17T07:20:27;4.63;;;1.45;;
40254;SDS011;25973;52.368;4.940;2023-03-17T07:22:53;7.95;;;1.48;;
40254;SDS011;25973;52.368;4.940;2023-03-17T07:25:19;4.03;;;1.58;;
40254;SDS011;25973;52.368;4.940;2023-03-17T07:27:45;5.45;;;1.42;;
40254;SDS011;25973;52.368;4.940;2023-03-17T07:30:11;3.80;;;1.60;;
40254;SDS011;25973;52.368;4.940;2023-03-17T07:32:37;3.10;;;1.38;;
40254;SDS011;25973;52.368;4.940;2023-03-17T07:35:03;4.28;;;1.45;;
40254;SDS011;25973;52.368;4.940;2023-03-17T07:37:30;4.35;;;1.20;;
40254;SDS011;25973;52.368;4.940;2023-03-17T07:39:55;3.75;;;1.40;;
40254;SDS011;25973;52.368;4.940;2023-03-17T07:42:21;5.47;;;1.35;;
40254;SDS011;25973;52.368;4.940;2023-03-17T07:44:46;5.72;;;1.83;;
40254;SDS011;25973;52.368;4.940;2023-03-17T07:47:12;3.42;;;1.40;;
40254;SDS011;25973;52.368;4.940;2023-03-17T07:49:38;3.05;;;1.35;;
40254;SDS011;25973;52.368;4.940;2023-03-17T07:52:05;6.82;;;2.33;;
40254;SDS011;25973;52.368;4.940;2023-03-17T07:54:32;6.43;;;1.63;;
40254;SDS011;25973;52.368;4.940;2023-03-17T07:56:57;7.57;;;1.45;;
40254;SDS011;25973;52.368;4.940;2023-03-17T07:59:23;4.30;;;1.45;;
40254;SDS011;25973;52.368;4.940;2023-03-17T08:01:49;6.10;;;1.65;;
40254;SDS011;25973;52.368;4.940;2023-03-17T08:04:14;3.60;;;1.17;;
40254;SDS011;25973;52.368;4.940;2023-03-17T08:06:40;3.65;;;1.50;;
40254;SDS011;25973;52.368;4.940;2023-03-17T08:09:09;4.05;;;1.40;;
40254;SDS011;25973;52.368;4.940;2023-03-17T08:11:35;3.55;;;1.27;;
40254;SDS011;25973;52.368;4.940;2023-03-17T08:14:01;3.38;;;1.33;;
40254;SDS011;25973;52.368;4.940;2023-03-17T08:16:28;2.97;;;1.33;;
40254;SDS011;25973;52.368;4.940;2023-03-17T08:18:54;6.18;;;1.73;;
40254;SDS011;25973;52.368;4.940;2023-03-17T08:21:21;6.93;;;1.70;;
40254;SDS011;25973;52.368;4.940;2023-03-17T08:23:47;3.20;;;1.20;;
40254;SDS011;25973;52.368;4.940;2023-03-17T08:26:12;4.47;;;1.83;;
40254;SDS011;25973;52.368;4.940;2023-03-17T08:28:38;8.65;;;1.30;;
40254;SDS011;25973;52.368;4.940;2023-03-17T08:31:25;6.20;;;1.15;;
40254;SDS011;25973;52.368;4.940;2023-03-17T08:33:51;3.00;;;1.25;;
40254;SDS011;25973;52.368;4.940;2023-03-17T08:36:18;4.25;;;1.45;;
40254;SDS011;25973;52.368;4.940;2023-03-17T08:38:45;3.50;;;1.85;;
40254;SDS011;25973;52.368;4.940;2023-03-17T08:41:12;2.40;;;1.20;;
40254;SDS011;25973;52.368;4.940;2023-03-17T08:43:41;4.90;;;1.55;;
40254;SDS011;25973;52.368;4.940;2023-03-17T08:48:40;4.22;;;1.65;;
40254;SDS011;25973;52.368;4.940;2023-03-17T08:51:06;3.42;;;1.48;;
40254;SDS011;25973;52.368;4.940;2023-03-17T08:53:32;5.57;;;1.88;;
40254;SDS011;25973;52.368;4.940;2023-03-17T08:55:58;5.30;;;1.60;;
40254;SDS011;25973;52.368;4.940;2023-03-17T08:58:25;3.60;;;1.77;;
40254;SDS011;25973;52.368;4.940;2023-03-17T09:00:50;3.60;;;1.77;;
40254;SDS011;25973;52.368;4.940;2023-03-17T09:03:17;12.05;;;1.52;;
40254;SDS011;25973;52.368;4.940;2023-03-17T09:05:42;4.50;;;1.52;;
40254;SDS011;25973;52.368;4.940;2023-03-17T09:08:09;4.75;;;2.00;;
40254;SDS011;25973;52.368;4.940;2023-03-17T09:10:35;7.45;;;1.77;;
40254;SDS011;25973;52.368;4.940;2023-03-17T09:13:01;5.07;;;2.05;;
40254;SDS011;25973;52.368;4.940;2023-03-17T09:15:29;3.65;;;1.50;;
40254;SDS011;25973;52.368;4.940;2023-03-17T09:17:55;8.13;;;1.60;;
40254;SDS011;25973;52.368;4.940;2023-03-17T09:20:21;5.70;;;1.50;;
40254;SDS011;25973;52.368;4.940;2023-03-17T09:22:47;4.95;;;1.67;;
40254;SDS011;25973;52.368;4.940;2023-03-17T09:25:13;3.97;;;1.90;;
40254;SDS011;25973;52.368;4.940;2023-03-17T09:27:42;8.55;;;2.33;;
40254;SDS011;25973;52.368;4.940;2023-03-17T09:30:08;4.22;;;1.60;;
40254;SDS011;25973;52.368;4.940;2023-03-17T09:32:35;4.38;;;1.63;;
40254;SDS011;25973;52.368;4.940;2023-03-17T09:35:01;5.38;;;1.67;;
40254;SDS011;25973;52.368;4.940;2023-03-17T09:37:27;3.92;;;1.75;;
40254;SDS011;25973;52.368;4.940;2023-03-17T09:39:53;8.07;;;1.88;;
40254;SDS011;25973;52.368;4.940;2023-03-17T09:44:55;2.83;;;2.08;;
40254;SDS011;25973;52.368;4.940;2023-03-17T09:50:23;7.05;;;2.42;;
40254;SDS011;25973;52.368;4.940;2023-03-17T09:52:51;5.43;;;2.10;;
40254;SDS011;25973;52.368;4.940;2023-03-17T09:55:22;5.63;;;2.47;;
40254;SDS011;25973;52.368;4.940;2023-03-17T09:57:51;7.68;;;1.95;;
40254;SDS011;25973;52.368;4.940;2023-03-17T10:00:21;5.25;;;2.08;;
40254;SDS011;25973;52.368;4.940;2023-03-17T10:02:55;5.55;;;2.30;;
40254;SDS011;25973;52.368;4.940;2023-03-17T10:05:26;5.18;;;2.33;;
40254;SDS011;25973;52.368;4.940;2023-03-17T10:10:48;4.70;;;2.08;;
40254;SDS011;25973;52.368;4.940;2023-03-17T10:16:01;6.63;;;2.50;;
40254;SDS011;25973;52.368;4.940;2023-03-17T10:18:38;5.10;;;1.92;;
40254;SDS011;25973;52.368;4.940;2023-03-17T10:21:16;5.40;;;1.70;;
40254;SDS011;25973;52.368;4.940;2023-03-17T10:23:48;4.72;;;1.88;;
40254;SDS011;25973;52.368;4.940;2023-03-17T10:26:30;5.78;;;1.83;;
40254;SDS011;25973;52.368;4.940;2023-03-17T10:29:18;8.07;;;2.40;;
40254;SDS011;25973;52.368;4.940;2023-03-17T10:31:46;6.70;;;2.60;;
40254;SDS011;25973;52.368;4.940;2023-03-17T10:34:26;8.63;;;2.33;;
40254;SDS011;25973;52.368;4.940;2023-03-17T10:37:39;4.75;;;2.53;;
40254;SDS011;25973;52.368;4.940;2023-03-17T10:42:27;7.80;;;3.15;;
40254;SDS011;25973;52.368;4.940;2023-03-17T10:44:55;6.03;;;2.28;;
40254;SDS011;25973;52.368;4.940;2023-03-17T10:47:42;7.13;;;2.85;;
40254;SDS011;25973;52.368;4.940;2023-03-17T10:52:57;4.93;;;2.30;;
40254;SDS011;25973;52.368;4.940;2023-03-17T10:55:25;12.27;;;2.85;;
40254;SDS011;25973;52.368;4.940;2023-03-17T10:57:57;5.40;;;2.58;;
40254;SDS011;25973;52.368;4.940;2023-03-17T11:00:25;10.82;;;2.78;;
40254;SDS011;25973;52.368;4.940;2023-03-17T11:02:58;5.28;;;2.72;;
40254;SDS011;25973;52.368;4.940;2023-03-17T11:05:27;7.22;;;2.67;;
40254;SDS011;25973;52.368;4.940;2023-03-17T11:07:59;3.55;;;2.35;;
40254;SDS011;25973;52.368;4.940;2023-03-17T11:13:01;10.88;;;2.72;;
40254;SDS011;25973;52.368;4.940;2023-03-17T11:15:29;9.35;;;3.17;;
40254;SDS011;25973;52.368;4.940;2023-03-17T11:17:59;10.23;;;2.70;;
40254;SDS011;25973;52.368;4.940;2023-03-17T11:25:31;6.38;;;2.72;;
40254;SDS011;25973;52.368;4.940;2023-03-17T11:28:09;6.30;;;2.67;;
40254;SDS011;25973;52.368;4.940;2023-03-17T11:30:45;9.13;;;2.57;;
40254;SDS011;25973;52.368;4.940;2023-03-17T11:33:25;8.82;;;2.38;;
40254;SDS011;25973;52.368;4.940;2023-03-17T11:36:07;6.97;;;2.70;;
40254;SDS011;25973;52.368;4.940;2023-03-17T11:38:57;7.47;;;3.05;;
40254;SDS011;25973;52.368;4.940;2023-03-17T11:44:23;7.55;;;2.80;;
40254;SDS011;25973;52.368;4.940;2023-03-17T11:47:06;7.38;;;2.67;;
40254;SDS011;25973;52.368;4.940;2023-03-17T11:50:02;8.82;;;2.75;;
40254;SDS011;25973;52.368;4.940;2023-03-17T11:52:57;8.25;;;2.80;;
40254;SDS011;25973;52.368;4.940;2023-03-17T11:55:31;7.40;;;2.80;;
40254;SDS011;25973;52.368;4.940;2023-03-17T11:58:04;7.85;;;3.05;;
40254;SDS011;25973;52.368;4.940;2023-03-17T12:00:40;8.77;;;2.70;;
40254;SDS011;25973;52.368;4.940;2023-03-17T12:03:19;7.13;;;2.78;;
40254;SDS011;25973;52.368;4.940;2023-03-17T12:05:56;7.13;;;2.58;;
40254;SDS011;25973;52.368;4.940;2023-03-17T12:08:49;6.85;;;2.63;;
40254;SDS011;25973;52.368;4.940;2023-03-17T12:11:27;5.68;;;2.58;;
40254;SDS011;25973;52.368;4.940;2023-03-17T12:13:57;7.37;;;2.80;;
40254;SDS011;25973;52.368;4.940;2023-03-17T12:16:29;7.30;;;2.97;;
40254;SDS011;25973;52.368;4.940;2023-03-17T12:19:05;6.07;;;2.38;;
40254;SDS011;25973;52.368;4.940;2023-03-17T12:21:41;6.30;;;2.95;;
40254;SDS011;25973;52.368;4.940;2023-03-17T12:24:17;12.38;;;3.03;;
40254;SDS011;25973;52.368;4.940;2023-03-17T12:27:07;9.80;;;2.55;;
40254;SDS011;25973;52.368;4.940;2023-03-17T12:29:46;7.72;;;3.25;;
40254;SDS011;25973;52.368;4.940;2023-03-17T12:32:19;14.82;;;2.88;;
40254;SDS011;25973;52.368;4.940;2023-03-17T12:34:49;10.20;;;2.63;;
40254;SDS011;25973;52.368;4.940;2023-03-17T12:37:19;6.18;;;2.58;;
40254;SDS011;25973;52.368;4.940;2023-03-17T12:39:51;10.57;;;2.72;;
40254;SDS011;25973;52.368;4.940;2023-03-17T12:42:30;8.25;;;3.00;;
40254;SDS011;25973;52.368;4.940;2023-03-17T12:45:20;12.73;;;3.03;;
40254;SDS011;25973;52.368;4.940;2023-03-17T12:50:39;8.43;;;3.30;;
40254;SDS011;25973;52.368;4.940;2023-03-17T12:55:46;8.43;;;3.40;;
40254;SDS011;25973;52.368;4.940;2023-03-17T12:58:28;11.27;;;3.35;;
40254;SDS011;25973;52.368;4.940;2023-03-17T13:06:42;5.13;;;2.55;;
40254;SDS011;25973;52.368;4.940;2023-03-17T13:11:59;6.93;;;3.08;;
40254;SDS011;25973;52.368;4.940;2023-03-17T13:14:27;6.60;;;3.13;;
40254;SDS011;25973;52.368;4.940;2023-03-17T13:19:53;5.88;;;2.90;;
40254;SDS011;25973;52.368;4.940;2023-03-17T13:22:32;9.48;;;3.22;;
40254;SDS011;25973;52.368;4.940;2023-03-17T13:27:44;9.60;;;3.88;;
40254;SDS011;25973;52.368;4.940;2023-03-17T13:30:40;6.65;;;3.42;;
40254;SDS011;25973;52.368;4.940;2023-03-17T13:33:15;9.60;;;3.30;;
40254;SDS011;25973;52.368;4.940;2023-03-17T13:38:40;7.05;;;2.97;;
40254;SDS011;25973;52.368;4.940;2023-03-17T13:46:54;6.68;;;3.17;;
40254;SDS011;25973;52.368;4.940;2023-03-17T13:52:12;11.27;;;3.10;;
40254;SDS011;25973;52.368;4.940;2023-03-17T13:54:45;10.30;;;4.07;;
40254;SDS011;25973;52.368;4.940;2023-03-17T13:57:24;10.40;;;3.20;;
40254;SDS011;25973;52.368;4.940;2023-03-17T13:59:56;9.23;;;3.20;;
40254;SDS011;25973;52.368;4.940;2023-03-17T14:04:55;6.15;;;3.50;;
40254;SDS011;25973;52.368;4.940;2023-03-17T14:07:27;7.45;;;3.90;;
40254;SDS011;25973;52.368;4.940;2023-03-17T14:10:00;9.38;;;3.70;;
40254;SDS011;25973;52.368;4.940;2023-03-17T14:12:39;9.50;;;3.17;;
40254;SDS011;25973;52.368;4.940;2023-03-17T14:15:15;6.30;;;3.40;;
40254;SDS011;25973;52.368;4.940;2023-03-17T14:20:32;7.63;;;3.22;;
40254;SDS011;25973;52.368;4.940;2023-03-17T14:22:59;7.55;;;4.03;;
40254;SDS011;25973;52.368;4.940;2023-03-17T14:25:29;13.02;;;3.25;;
40254;SDS011;25973;52.368;4.940;2023-03-17T14:27:57;9.75;;;3.42;;
40254;SDS011;25973;52.368;4.940;2023-03-17T14:30:27;6.78;;;3.80;;
40254;SDS011;25973;52.368;4.940;2023-03-17T14:32:58;9.95;;;3.78;;
40254;SDS011;25973;52.368;4.940;2023-03-17T14:35:28;13.20;;;4.68;;
40254;SDS011;25973;52.368;4.940;2023-03-17T14:37:58;13.80;;;4.28;;
40254;SDS011;25973;52.368;4.940;2023-03-17T14:40:25;10.38;;;4.25;;
40254;SDS011;25973;52.368;4.940;2023-03-17T14:42:53;10.25;;;4.07;;
40254;SDS011;25973;52.368;4.940;2023-03-17T14:48:08;14.30;;;3.58;;
40254;SDS011;25973;52.368;4.940;2023-03-17T14:50:42;10.95;;;3.72;;
40254;SDS011;25973;52.368;4.940;2023-03-17T14:53:17;9.60;;;4.07;;
40254;SDS011;25973;52.368;4.940;2023-03-17T14:55:43;8.65;;;3.47;;
40254;SDS011;25973;52.368;4.940;2023-03-17T14:58:30;7.28;;;3.20;;
40254;SDS011;25973;52.368;4.940;2023-03-17T15:01:06;7.25;;;3.28;;
40254;SDS011;25973;52.368;4.940;2023-03-17T15:03:39;8.90;;;3.47;;
40254;SDS011;25973;52.368;4.940;2023-03-17T15:06:27;5.38;;;3.17;;
40254;SDS011;25973;52.368;4.940;2023-03-17T15:08:56;10.38;;;3.55;;
40254;SDS011;25973;52.368;4.940;2023-03-17T15:11:24;8.82;;;2.80;;
40254;SDS011;25973;52.368;4.940;2023-03-17T15:13:53;7.75;;;3.10;;
40254;SDS011;25973;52.368;4.940;2023-03-17T15:16:28;14.90;;;3.63;;
40254;SDS011;25973;52.368;4.940;2023-03-17T15:19:04;9.38;;;3.33;;
40254;SDS011;25973;52.368;4.940;2023-03-17T15:24:05;7.38;;;3.78;;
40254;SDS011;25973;52.368;4.940;2023-03-17T15:29:08;8.40;;;3.30;;
40254;SDS011;25973;52.368;4.940;2023-03-17T15:31:33;9.20;;;3.30;;
40254;SDS011;25973;52.368;4.940;2023-03-17T15:33:59;6.97;;;2.95;;
40254;SDS011;25973;52.368;4.940;2023-03-17T15:36:25;8.25;;;3.20;;
40254;SDS011;25973;52.368;4.940;2023-03-17T15:38:52;10.02;;;3.58;;
40254;SDS011;25973;52.368;4.940;2023-03-17T15:41:18;16.75;;;3.47;;
40254;SDS011;25973;52.368;4.940;2023-03-17T15:43:43;7.63;;;3.67;;
40254;SDS011;25973;52.368;4.940;2023-03-17T15:46:13;14.20;;;3.60;;
40254;SDS011;25973;52.368;4.940;2023-03-17T15:48:51;13.77;;;3.42;;
40254;SDS011;25973;52.368;4.940;2023-03-17T15:51:17;5.65;;;3.17;;
40254;SDS011;25973;52.368;4.940;2023-03-17T15:53:42;11.50;;;3.60;;
40254;SDS011;25973;52.368;4.940;2023-03-17T15:56:15;7.95;;;3.15;;
40254;SDS011;25973;52.368;4.940;2023-03-17T15:58:46;10.45;;;3.35;;
40254;SDS011;25973;52.368;4.940;2023-03-17T16:01:15;12.88;;;3.88;;
40254;SDS011;25973;52.368;4.940;2023-03-17T16:03:41;6.85;;;3.45;;
40254;SDS011;25973;52.368;4.940;2023-03-17T16:06:15;13.20;;;4.05;;
40254;SDS011;25973;52.368;4.940;2023-03-17T16:08:43;6.22;;;3.42;;
40254;SDS011;25973;52.368;4.940;2023-03-17T16:11:13;14.23;;;3.90;;
40254;SDS011;25973;52.368;4.940;2023-03-17T16:13:43;16.48;;;4.50;;
40254;SDS011;25973;52.368;4.940;2023-03-17T16:16:14;8.93;;;3.60;;
40254;SDS011;25973;52.368;4.940;2023-03-17T16:18:45;6.68;;;3.90;;